Downstream station:
SHEF ID: EMPK1 COTTONWOOD R AT EMPORIA
STATION TYPE:
STAGE RIV-FLOW BAT-LOAD
ft cfs volt
Ccp-Rev Ccp-Rev Ccp-Rev
(US/Central)
03/18 00:00 1.76 72 12.49
03/18 01:00 1.77 73 12.49
03/18 02:00 1.78 74 12.41
03/18 03:00 1.79 76 12.41
03/18 04:00 1.80 77 12.41
03/18 05:00 1.81 78 12.41
03/18 06:00 1.84 82 12.33
03/18 07:00 1.85 83 12.25
03/18 08:00 1.85 83 12.25
03/18 09:00 1.91 92 12.25
03/18 10:00 1.94 96 12.49
03/18 11:00 1.98 102 13.37
03/18 12:00 1.98 102 13.68
03/18 13:00 2.01 106 13.68
03/18 14:00 2.02 108 13.60
03/18 15:00 1.99 103 13.60
03/18 16:00 1.99 103 13.68
03/18 17:00 2.00 105 13.68
03/18 18:00 1.99 103 13.68
03/18 19:00 1.99 103 13.53
03/18 20:00 2.00 105 12.97
03/18 21:00 2.02 108 ----
03/18 22:00 2.06 114 12.57
03/18 23:00 2.12 124 12.49